Lunenburg, Nouvelle Écosse

Conditions des dernières 24 heures

Date / Heure
(HAA)
Conditions Temp
(°C)
Humidité
(%)
Point de rosée
(°C)
Vent
(km/h)
Pression
(kPa)
Visibilité
(km)
23 octobre 2014
1:00 N.D. 14   93 13 E 45 rafale 62 101,8 N.D.
0:00 N.D. 14   94 13 E 38 rafale 49 101,9 N.D.
22 octobre 2014
23:00 N.D. 14   93 13 E 44 rafale 58 101,9 N.D.
22:00 N.D. 14   94 13 E 50 rafale 67 101,9 N.D.
21:00 N.D. 14   96 13 ENE 41 rafale 52 102,0 N.D.
20:00 N.D. 13 96 13 ENE 35 rafale 45 102,0 N.D.
19:00 N.D. 13 96 12 ENE 37 rafale 51 102,0 N.D.
18:00 N.D. 13 96 12 ENE 43 rafale 53 101,9 N.D.
17:00 N.D. 13 96 12 ENE 39 rafale 56 102,0 N.D.
16:00 N.D. 13 94 12 ENE 42 rafale 55 102,0 N.D.
15:00 N.D. 13 93 12 E 44 rafale 59 102,0 N.D.
14:00 N.D. 13 94 12 E 46 rafale 56 102,0 N.D.
13:00 N.D. 12   95 12 ENE 42 rafale 55 102,1 N.D.
12:00 N.D. 12   95 12 ENE 37 rafale 53 102,2 N.D.
11:00 N.D. 12   93 11 ENE 34 rafale 52 102,2 N.D.
10:00 N.D. 12   92 11 ENE 33 rafale 46 102,2 N.D.
9:00 N.D. 12   91 11 ENE 27 rafale 43 102,3 N.D.
8:00 N.D. 13 88 11 ENE 28 rafale 37 102,2 N.D.
7:00 N.D. 13 86 10 ENE 27 rafale 38 102,2 N.D.
6:00 N.D. 13 87 11 ENE 34 102,2 N.D.
5:00 N.D. 13 87 11 ENE 25 rafale 37 102,2 N.D.
4:00 N.D. 12   88 10 ENE 22 rafale 32 102,2 N.D.
3:00 N.D. 13 84 10 ENE 22 102,3 N.D.
2:00 N.D. 13 82 10 ENE 18 102,3 N.D.
1:00 N.D. 13 84 10 ENE 15 102,3 N.D.
N.D. non disponible
↑ température la plus haute
↓ température la plus basse

Si vous désirez plus de données historiques sur les conditions météo, s.v.p. visitez Données climatologiques en ligne.

Date de modification :